Time;durP1;ratioP1;P1;durP2;ratioP2;P2;SDS_P1;SDS_P2;PMS_P1;PMS_P2;Temp;Humidity;BMP_temperature;BMP_pressure;BME280_temperature;BME280_humidity;BME280_pressure;Samples;Min_cycle;Max_cycle;Signal;HPM_P1;HPM_P2
2023/09/30 00:00:05;;;;;;;10.98;6.80;;;22.30;57.00;;;;;;4997965;28;20217;-77
2023/09/30 00:02:38;;;;;;;11.32;6.70;;;22.30;57.10;;;;;;4998519;28;20186;-77
2023/09/30 00:05:06;;;;;;;10.95;6.18;;;22.30;57.10;;;;;;4997278;28;20201;-77
2023/09/30 00:07:33;;;;;;;9.77;6.20;;;22.30;57.10;;;;;;4997214;28;20217;-76
2023/09/30 00:10:00;;;;;;;9.48;6.00;;;22.30;57.10;;;;;;4997789;28;20638;-76
2023/09/30 00:12:27;;;;;;;11.18;5.85;;;22.30;57.10;;;;;;4998703;28;20247;-76
2023/09/30 00:14:54;;;;;;;10.18;6.20;;;22.30;57.10;;;;;;4997087;28;20228;-76
2023/09/30 00:17:21;;;;;;;9.90;6.13;;;22.30;57.10;;;;;;4996887;28;20201;-76
2023/09/30 00:19:49;;;;;;;9.85;5.95;;;22.30;57.20;;;;;;4997296;28;20221;-76
2023/09/30 00:22:17;;;;;;;11.15;6.38;;;22.20;57.00;;;;;;4997129;28;20252;-75
2023/09/30 00:24:44;;;;;;;9.55;5.55;;;22.30;57.10;;;;;;4996751;28;20232;-77
2023/09/30 00:27:11;;;;;;;10.13;6.47;;;22.30;57.10;;;;;;4996908;28;20762;-77
2023/09/30 00:29:38;;;;;;;9.85;6.10;;;22.20;57.10;;;;;;4996060;28;20222;-75
2023/09/30 00:32:05;;;;;;;9.02;5.78;;;22.30;57.20;;;;;;4980985;28;20261;-75
2023/09/30 00:34:34;;;;;;;9.80;6.20;;;22.30;57.20;;;;;;5008650;28;20637;-75
2023/09/30 00:37:02;;;;;;;9.77;5.82;;;22.20;57.10;;;;;;4998166;28;20301;-75
2023/09/30 00:39:30;;;;;;;9.88;5.65;;;22.20;57.10;;;;;;5002471;28;20637;-75
2023/09/30 00:41:59;;;;;;;10.63;5.95;;;22.20;57.20;;;;;;4996896;28;20201;-75
2023/09/30 00:44:26;;;;;;;8.52;5.47;;;22.20;57.20;;;;;;4996755;28;20751;-75
2023/09/30 00:46:53;;;;;;;8.80;5.70;;;22.20;57.20;;;;;;4997090;28;20316;-75
2023/09/30 00:49:20;;;;;;;9.80;5.60;;;22.20;57.20;;;;;;4998218;28;20229;-75
2023/09/30 00:51:49;;;;;;;8.88;5.60;;;22.20;57.20;;;;;;4997485;28;20213;-75
2023/09/30 00:54:17;;;;;;;8.85;5.63;;;22.20;57.20;;;;;;4996522;28;20204;-75
2023/09/30 00:56:45;;;;;;;9.95;5.57;;;22.20;57.10;;;;;;4997064;28;20190;-75
2023/09/30 00:59:12;;;;;;;9.23;5.30;;;22.20;57.20;;;;;;4996059;28;20228;-75
2023/09/30 01:01:39;;;;;;;8.48;5.32;;;22.20;57.10;;;;;;4997037;28;20192;-75
2023/09/30 01:04:07;;;;;;;9.95;5.57;;;22.20;57.10;;;;;;4995676;28;20567;-75
2023/09/30 01:06:34;;;;;;;8.73;5.40;;;22.20;57.10;;;;;;4979020;28;20261;-75
2023/09/30 01:09:01;;;;;;;7.95;4.78;;;22.20;57.10;;;;;;4995253;28;20284;-75
2023/09/30 01:11:29;;;;;;;8.55;5.07;;;22.20;57.10;;;;;;4995275;28;20207;-75
2023/09/30 01:13:57;;;;;;;8.15;4.90;;;22.20;57.20;;;;;;4995517;28;20283;-75
2023/09/30 01:16:24;;;;;;;7.65;5.05;;;22.20;57.10;;;;;;4995034;28;20292;-75
2023/09/30 01:18:51;;;;;;;7.97;4.93;;;22.20;57.10;;;;;;4994915;28;20201;-75
2023/09/30 01:21:19;;;;;;;7.80;4.95;;;22.10;57.10;;;;;;4995917;28;20244;-75
2023/09/30 01:23:47;;;;;;;7.80;4.65;;;22.20;57.10;;;;;;4994872;28;20197;-75
2023/09/30 01:26:15;;;;;;;7.30;4.63;;;22.10;57.10;;;;;;4994786;28;20293;-75
2023/09/30 01:28:42;;;;;;;7.85;4.70;;;22.10;57.10;;;;;;4978396;28;20201;-75
2023/09/30 01:31:10;;;;;;;8.00;4.88;;;22.10;57.10;;;;;;4994738;28;20219;-75
2023/09/30 01:33:37;;;;;;;8.35;4.85;;;22.10;57.10;;;;;;4994490;28;20202;-75
2023/09/30 01:36:04;;;;;;;9.23;5.13;;;22.10;57.10;;;;;;4994498;28;20198;-75
2023/09/30 01:38:31;;;;;;;6.63;4.60;;;22.10;57.10;;;;;;4978470;28;20292;-75
2023/09/30 01:41:00;;;;;;;7.32;4.72;;;22.10;57.10;;;;;;4994622;28;20221;-75
2023/09/30 01:43:27;;;;;;;6.22;4.07;;;22.10;57.10;;;;;;4995407;28;20273;-75
2023/09/30 01:45:54;;;;;;;7.43;4.70;;;22.10;57.10;;;;;;4994841;28;20637;-75
2023/09/30 01:48:22;;;;;;;7.32;4.30;;;22.10;57.10;;;;;;4994813;28;20260;-75
2023/09/30 01:50:48;;;;;;;7.15;4.60;;;22.10;57.10;;;;;;4994710;28;20224;-75
2023/09/30 01:53:16;;;;;;;7.10;4.53;;;22.10;57.10;;;;;;4994458;28;20205;-75
2023/09/30 01:55:44;;;;;;;7.40;4.53;;;22.10;57.20;;;;;;4994934;28;20209;-75
2023/09/30 01:58:12;;;;;;;7.60;4.55;;;22.10;57.20;;;;;;4994793;28;20198;-75
2023/09/30 02:00:40;;;;;;;6.97;4.25;;;22.10;57.20;;;;;;4994243;28;20641;-75
2023/09/30 02:03:07;;;;;;;8.05;4.53;;;22.10;57.20;;;;;;4994483;28;20212;-75
2023/09/30 02:05:34;;;;;;;7.15;4.15;;;22.10;57.20;;;;;;4977893;28;20296;-75
2023/09/30 02:08:05;;;;;;;5.45;3.83;;;22.10;57.20;;;;;;4994334;28;20241;-75
2023/09/30 02:10:33;;;;;;;6.32;3.65;;;22.00;57.10;;;;;;4994001;28;20252;-77
2023/09/30 02:13:00;;;;;;;6.65;4.25;;;22.00;57.20;;;;;;4994226;28;20296;-77
2023/09/30 02:15:27;;;;;;;5.78;3.85;;;22.10;57.30;;;;;;4994408;28;20201;-77
2023/09/30 02:17:54;;;;;;;6.97;4.25;;;22.00;57.20;;;;;;4993938;28;20221;-77
2023/09/30 02:20:25;;;;;;;6.15;3.75;;;22.00;57.20;;;;;;4994582;28;20221;-77
2023/09/30 02:22:54;;;;;;;7.10;4.32;;;22.00;57.20;;;;;;4994024;28;20193;-77
2023/09/30 02:25:21;;;;;;;5.63;3.78;;;22.00;57.20;;;;;;4994258;28;20205;-75
2023/09/30 02:27:49;;;;;;;6.82;4.20;;;22.00;57.20;;;;;;4993869;28;20221;-75
2023/09/30 02:30:17;;;;;;;7.03;4.15;;;22.00;57.20;;;;;;5006114;23;20257;-52
2023/09/30 02:32:46;;;;;;;6.68;4.10;;;22.00;57.20;;;;;;4992911;28;20193;-52
2023/09/30 02:35:15;;;;;;;5.95;3.65;;;22.00;57.20;;;;;;4994036;28;20244;-52
2023/09/30 02:37:41;;;;;;;6.15;3.90;;;22.00;57.30;;;;;;4993980;28;20213;-52
2023/09/30 02:40:10;;;;;;;5.95;3.78;;;22.00;57.30;;;;;;4994026;28;20200;-52
2023/09/30 02:42:37;;;;;;;6.00;3.75;;;22.00;57.30;;;;;;4994372;28;20197;-52
2023/09/30 02:45:07;;;;;;;5.80;3.92;;;22.00;57.30;;;;;;4995213;28;20194;-53
2023/09/30 02:47:35;;;;;;;7.05;4.20;;;22.00;57.30;;;;;;4992493;28;20229;-52
2023/09/30 02:50:08;;;;;;;5.88;4.00;;;22.00;57.30;;;;;;4992941;28;20197;-52
2023/09/30 02:52:36;;;;;;;5.57;3.50;;;22.00;57.30;;;;;;4993754;28;20186;-52
2023/09/30 02:55:04;;;;;;;5.60;4.10;;;21.90;57.30;;;;;;4992520;28;20284;-52
2023/09/30 02:57:32;;;;;;;4.85;3.42;;;21.90;57.30;;;;;;4993831;28;20210;-52
2023/09/30 03:00:00;;;;;;;5.65;3.50;;;21.90;57.30;;;;;;4992623;28;20203;-52
2023/09/30 03:02:27;;;;;;;6.03;3.75;;;21.90;57.40;;;;;;4994058;28;20216;-52
2023/09/30 03:04:54;;;;;;;5.85;3.40;;;21.90;57.40;;;;;;4992402;28;20219;-52
2023/09/30 03:07:23;;;;;;;5.18;3.28;;;21.90;57.40;;;;;;4992314;28;20225;-52
2023/09/30 03:09:50;;;;;;;5.10;3.50;;;21.90;57.40;;;;;;4993728;28;20658;-52
2023/09/30 03:12:17;;;;;;;6.30;3.70;;;21.90;57.50;;;;;;4992427;28;20263;-52
2023/09/30 03:14:45;;;;;;;5.55;3.67;;;21.90;57.60;;;;;;4992406;28;20396;-52
2023/09/30 03:17:12;;;;;;;5.88;3.58;;;21.90;57.50;;;;;;4993838;28;20189;-52
2023/09/30 03:19:40;;;;;;;4.75;3.25;;;21.90;57.50;;;;;;4993670;28;20194;-52
2023/09/30 03:22:10;;;;;;;5.07;3.40;;;22.00;57.50;;;;;;4993664;28;20272;-52
2023/09/30 03:24:41;;;;;;;5.63;3.47;;;22.00;57.40;;;;;;4993929;28;20182;-52
2023/09/30 03:27:08;;;;;;;4.85;3.30;;;22.00;57.30;;;;;;4992151;28;20620;-52
2023/09/30 03:29:36;;;;;;;4.68;3.05;;;22.10;57.30;;;;;;4993715;28;20229;-52
2023/09/30 03:32:03;;;;;;;4.28;3.15;;;22.10;57.20;;;;;;4993554;28;20276;-52
2023/09/30 03:34:31;;;;;;;4.57;3.13;;;22.10;57.00;;;;;;4992229;28;20625;-52
2023/09/30 03:36:59;;;;;;;5.70;3.22;;;22.20;57.00;;;;;;4992113;28;20221;-52
2023/09/30 03:39:27;;;;;;;5.13;3.03;;;22.20;57.00;;;;;;4993476;28;20252;-52
2023/09/30 03:41:57;;;;;;;4.50;2.88;;;22.20;57.00;;;;;;4992198;28;20197;-52
2023/09/30 03:44:24;;;;;;;4.43;3.13;;;22.20;56.90;;;;;;4993440;28;20685;-52
2023/09/30 03:46:53;;;;;;;4.88;3.10;;;22.20;56.70;;;;;;4992077;28;20201;-52
2023/09/30 03:49:20;;;;;;;4.03;3.03;;;22.20;56.70;;;;;;4992233;28;20197;-52
2023/09/30 03:51:50;;;;;;;5.25;2.90;;;22.30;56.70;;;;;;4993364;28;20252;-52
2023/09/30 03:54:18;;;;;;;4.45;3.20;;;22.30;56.70;;;;;;4992033;28;20268;-52
2023/09/30 03:56:46;;;;;;;4.45;2.92;;;22.30;56.70;;;;;;4992020;28;20217;-52
2023/09/30 03:59:15;;;;;;;3.95;2.97;;;22.30;57.10;;;;;;4993248;28;20212;-52
2023/09/30 04:01:44;;;;;;;4.70;3.40;;;22.30;56.50;;;;;;5020538;23;20243;-76
2023/09/30 04:04:11;;;;;;;3.85;2.60;;;22.30;56.40;;;;;;5012774;28;20259;-76
2023/09/30 04:06:38;;;;;;;4.63;3.05;;;22.40;56.50;;;;;;5021935;28;20203;-76
2023/09/30 04:09:09;;;;;;;5.15;3.08;;;22.40;56.50;;;;;;5020606;28;20725;-76
2023/09/30 04:11:37;;;;;;;4.82;2.97;;;22.40;56.50;;;;;;5002003;28;20185;-76
2023/09/30 04:14:05;;;;;;;4.30;2.90;;;22.30;56.40;;;;;;5016313;28;20647;-76
2023/09/30 04:16:34;;;;;;;3.97;2.67;;;22.40;56.50;;;;;;5016015;28;20207;-76
2023/09/30 04:19:01;;;;;;;3.20;2.33;;;22.40;56.40;;;;;;5015728;28;20247;-76
2023/09/30 04:21:29;;;;;;;4.38;2.97;;;22.40;56.50;;;;;;5017305;28;20193;-76
2023/09/30 04:23:56;;;;;;;3.85;2.63;;;22.40;56.40;;;;;;5015745;28;20208;-76
2023/09/30 04:26:23;;;;;;;3.97;2.75;;;22.40;56.50;;;;;;5015710;28;20207;-76
2023/09/30 04:28:51;;;;;;;4.90;3.20;;;22.40;56.40;;;;;;5015425;28;20311;-77
2023/09/30 04:31:18;;;;;;;3.70;2.70;;;22.40;56.40;;;;;;5015366;28;20239;-76
2023/09/30 04:33:47;;;;;;;3.67;2.90;;;22.40;56.50;;;;;;5015120;28;20640;-76
2023/09/30 04:36:13;;;;;;;3.75;2.60;;;22.40;56.50;;;;;;5015200;28;20196;-77
2023/09/30 04:38:41;;;;;;;4.00;2.70;;;22.30;56.40;;;;;;5017480;28;20193;-77
2023/09/30 04:41:08;;;;;;;3.47;2.60;;;22.30;56.50;;;;;;5015328;28;20220;-78
2023/09/30 04:43:36;;;;;;;3.85;2.60;;;22.30;56.30;;;;;;5016018;28;20200;-78
2023/09/30 04:46:05;;;;;;;3.63;2.67;;;22.30;56.20;;;;;;5016532;28;20228;-78
2023/09/30 04:48:33;;;;;;;4.78;2.85;;;22.30;56.30;;;;;;5015811;28;20591;-78
2023/09/30 04:51:25;;;;;;;3.83;2.42;;;22.20;56.50;;;;;;5016881;28;20184;-78
2023/09/30 04:53:54;;;;;;;3.60;2.47;;;22.20;56.70;;;;;;5015349;28;20197;-78
2023/09/30 04:56:21;;;;;;;3.03;2.40;;;22.20;56.80;;;;;;5015720;28;20200;-78
2023/09/30 04:58:48;;;;;;;2.78;2.30;;;22.20;56.90;;;;;;5015138;28;20205;-79
2023/09/30 05:01:18;;;;;;;3.55;2.38;;;22.20;57.10;;;;;;5014791;28;20201;-78
2023/09/30 05:03:48;;;;;;;3.92;2.58;;;22.20;57.10;;;;;;5014761;28;20333;-78
2023/09/30 05:06:15;;;;;;;3.15;2.40;;;22.20;58.00;;;;;;5014850;28;20196;-78
2023/09/30 05:08:44;;;;;;;3.92;2.42;;;22.20;57.40;;;;;;5014541;28;20300;-79
2023/09/30 05:11:11;;;;;;;4.28;2.72;;;22.20;57.60;;;;;;5014562;28;20259;-78
2023/09/30 05:13:38;;;;;;;2.78;2.13;;;22.20;57.70;;;;;;5014747;28;20196;-79
2023/09/30 05:16:05;;;;;;;3.97;2.45;;;22.20;57.80;;;;;;5014460;28;20228;-79
2023/09/30 05:18:32;;;;;;;3.45;2.20;;;22.20;57.50;;;;;;4999099;28;20196;-79
2023/09/30 05:21:00;;;;;;;3.55;2.40;;;22.20;57.30;;;;;;5014542;28;20223;-79
2023/09/30 05:23:27;;;;;;;2.88;2.22;;;22.20;57.10;;;;;;5014927;28;20207;-79
2023/09/30 05:25:56;;;;;;;3.75;2.25;;;22.10;57.10;;;;;;5012422;23;20228;-77
2023/09/30 05:28:23;;;;;;;2.60;2.08;;;22.10;56.90;;;;;;5014282;28;20224;-76
2023/09/30 05:30:50;;;;;;;3.05;2.20;;;22.10;56.80;;;;;;5014311;28;20228;-76
2023/09/30 05:33:17;;;;;;;2.78;2.10;;;22.10;56.70;;;;;;5014440;28;20197;-76
2023/09/30 05:35:44;;;;;;;3.70;2.20;;;22.10;56.70;;;;;;5023754;28;20205;-76
2023/09/30 05:38:12;;;;;;;3.22;2.28;;;22.10;56.70;;;;;;5004369;28;20200;-76
2023/09/30 05:40:39;;;;;;;3.65;2.20;;;22.00;56.70;;;;;;5026146;28;20217;-76
2023/09/30 05:43:07;;;;;;;3.70;2.35;;;22.00;56.90;;;;;;4999190;28;20200;-76
2023/09/30 05:45:35;;;;;;;2.45;2.05;;;22.00;57.00;;;;;;5014776;28;20208;-75
2023/09/30 05:48:05;;;;;;;3.50;2.10;;;22.00;57.00;;;;;;5013745;28;20678;-75
2023/09/30 05:50:34;;;;;;;2.47;2.13;;;22.00;57.40;;;;;;5013759;28;20228;-75
2023/09/30 05:53:01;;;;;;;3.20;2.38;;;21.90;57.40;;;;;;5013767;28;20200;-75
2023/09/30 05:55:29;;;;;;;2.83;2.03;;;22.00;57.50;;;;;;5027962;23;20243;-76
2023/09/30 05:57:56;;;;;;;3.80;2.15;;;21.90;57.40;;;;;;5013695;28;20189;-76
2023/09/30 06:00:30;;;;;;;3.50;2.17;;;21.90;57.50;;;;;;5013427;28;20695;-76
2023/09/30 06:02:58;;;;;;;2.60;2.03;;;22.00;57.50;;;;;;4997820;28;20674;-76
2023/09/30 06:05:26;;;;;;;2.58;2.10;;;22.00;57.30;;;;;;4997173;28;20308;-76
2023/09/30 06:07:54;;;;;;;2.63;2.20;;;22.00;57.20;;;;;;5015255;28;20220;-77
2023/09/30 06:10:21;;;;;;;2.67;2.10;;;21.90;57.00;;;;;;5016500;28;20303;-77
2023/09/30 06:12:54;;;;;;;3.20;2.28;;;22.00;57.00;;;;;;5013381;28;20254;-77
2023/09/30 06:15:25;;;;;;;2.80;1.90;;;22.00;57.00;;;;;;5014524;28;20225;-77
2023/09/30 06:17:54;;;;;;;3.05;2.35;;;22.10;57.00;;;;;;5013305;28;20619;-78
2023/09/30 06:20:22;;;;;;;3.67;2.30;;;22.10;56.80;;;;;;5014408;28;20213;-78
2023/09/30 06:22:49;;;;;;;3.28;2.20;;;22.10;56.70;;;;;;5013048;28;20205;-78
2023/09/30 06:25:16;;;;;;;3.42;2.30;;;22.10;56.70;;;;;;5013323;28;20203;-78
2023/09/30 06:27:43;;;;;;;4.53;2.28;;;22.20;56.60;;;;;;5012140;28;20189;-78
2023/09/30 06:30:33;;;;;;;2.80;2.17;;;22.20;56.70;;;;;;5014061;28;20223;-78
2023/09/30 06:33:04;;;;;;;2.83;2.15;;;22.20;56.30;;;;;;5014098;28;20657;-78
2023/09/30 06:35:37;;;;;;;3.08;2.17;;;22.20;56.30;;;;;;5012916;28;20193;-78
2023/09/30 06:38:06;;;;;;;2.45;1.95;;;22.30;56.40;;;;;;5014041;28;20184;-78
2023/09/30 06:40:33;;;;;;;3.03;1.90;;;22.30;56.30;;;;;;5012771;28;20224;-78
2023/09/30 06:43:01;;;;;;;2.75;1.98;;;22.30;56.40;;;;;;5012715;28;20267;-78
2023/09/30 06:45:28;;;;;;;2.92;2.28;;;22.30;56.40;;;;;;5012743;28;20624;-78
2023/09/30 06:47:55;;;;;;;3.63;2.20;;;22.30;56.30;;;;;;5012520;28;20569;-78
2023/09/30 06:50:23;;;;;;;2.50;2.10;;;22.40;56.30;;;;;;5012674;28;20694;-78
2023/09/30 06:52:51;;;;;;;2.70;2.13;;;22.40;56.20;;;;;;5013906;28;20220;-78
2023/09/30 06:55:17;;;;;;;3.58;2.38;;;22.40;56.10;;;;;;5012503;28;20242;-78
2023/09/30 06:57:45;;;;;;;4.35;2.33;;;22.50;56.00;;;;;;4997085;28;20250;-78
2023/09/30 07:00:13;;;;;;;2.95;2.17;;;22.60;56.00;;;;;;5013484;28;20225;-78
2023/09/30 07:02:41;;;;;;;3.20;2.25;;;22.50;55.70;;;;;;5013676;28;20258;-78
2023/09/30 07:05:08;;;;;;;2.70;2.28;;;22.60;55.70;;;;;;5014942;28;20195;-78
2023/09/30 07:07:37;;;;;;;2.75;2.25;;;22.60;55.60;;;;;;5014326;28;20201;-78
2023/09/30 07:10:06;;;;;;;2.70;2.13;;;22.60;55.50;;;;;;5014419;28;20271;-78
2023/09/30 07:12:35;;;;;;;2.78;2.10;;;22.70;55.70;;;;;;5014040;28;20236;-78
2023/09/30 07:15:02;;;;;;;2.53;2.15;;;22.70;55.60;;;;;;5013024;28;20638;-78
2023/09/30 07:17:29;;;;;;;2.42;2.10;;;22.80;55.60;;;;;;5012632;28;20208;-78
2023/09/30 07:19:57;;;;;;;4.13;2.13;;;22.80;55.40;;;;;;5012740;28;20647;-78
2023/09/30 07:22:24;;;;;;;5.93;2.63;;;22.80;55.20;;;;;;5012570;28;20220;-78
2023/09/30 07:24:53;;;;;;;2.80;2.03;;;23.00;55.80;;;;;;5012927;28;20210;-78
2023/09/30 07:27:20;;;;;;;3.00;2.17;;;23.00;55.00;;;;;;5013115;28;20200;-78
2023/09/30 07:29:48;;;;;;;3.20;2.10;;;23.00;54.90;;;;;;5013109;28;20331;-78
2023/09/30 07:32:14;;;;;;;3.72;2.20;;;23.10;54.80;;;;;;5012547;28;20197;-78
2023/09/30 07:34:41;;;;;;;2.72;2.00;;;23.10;54.70;;;;;;5012998;28;20599;-78
2023/09/30 07:37:09;;;;;;;5.00;2.65;;;23.20;54.70;;;;;;5012258;28;20192;-78
2023/09/30 07:39:36;;;;;;;2.92;2.22;;;23.20;54.90;;;;;;5014420;28;20307;-78
2023/09/30 07:42:05;;;;;;;3.30;2.22;;;23.20;55.50;;;;;;5017327;28;20192;-78
2023/09/30 07:44:32;;;;;;;3.20;2.40;;;23.20;55.80;;;;;;5028245;28;20200;-78
2023/09/30 07:46:59;;;;;;;2.85;2.53;;;23.10;55.70;;;;;;5016779;28;20673;-78
2023/09/30 07:49:25;;;;;;;2.65;2.08;;;23.20;55.80;;;;;;5016151;28;20228;-78
2023/09/30 07:51:53;;;;;;;3.25;2.10;;;23.20;55.90;;;;;;5016064;28;20274;-78
2023/09/30 07:54:20;;;;;;;3.63;2.33;;;23.20;55.80;;;;;;5015992;28;20204;-78
2023/09/30 07:56:47;;;;;;;2.72;2.15;;;23.30;55.70;;;;;;5016170;28;20205;-78
2023/09/30 07:59:15;;;;;;;2.53;2.10;;;23.30;55.70;;;;;;5016315;28;20240;-78
2023/09/30 08:01:42;;;;;;;3.03;2.10;;;23.30;55.70;;;;;;5016107;28;20682;-78
2023/09/30 08:04:09;;;;;;;2.67;2.10;;;23.40;55.70;;;;;;4999960;28;20555;-78
2023/09/30 08:06:36;;;;;;;3.92;2.50;;;23.40;55.30;;;;;;5015847;28;20197;-78
2023/09/30 08:09:09;;;;;;;4.13;2.20;;;23.40;55.10;;;;;;5018034;28;20216;-78
2023/09/30 08:11:37;;;;;;;3.90;2.30;;;23.50;55.20;;;;;;5015701;28;20204;-78
2023/09/30 08:14:06;;;;;;;3.45;2.00;;;23.50;55.00;;;;;;5015602;28;20228;-78
2023/09/30 08:16:34;;;;;;;2.63;2.10;;;23.50;55.00;;;;;;4999364;28;20280;-78
2023/09/30 08:19:02;;;;;;;3.38;2.10;;;23.60;54.90;;;;;;5015409;28;20635;-78
2023/09/30 08:21:29;;;;;;;3.47;2.30;;;23.60;54.80;;;;;;5015787;28;20197;-77
2023/09/30 08:23:57;;;;;;;3.45;2.15;;;23.60;54.70;;;;;;5015297;28;20196;-77
2023/09/30 08:26:24;;;;;;;3.13;2.15;;;23.60;54.70;;;;;;5015422;28;20197;-77
2023/09/30 08:28:51;;;;;;;2.50;2.10;;;23.60;54.20;;;;;;5015028;28;20271;-77
2023/09/30 08:31:19;;;;;;;3.22;2.28;;;23.70;54.00;;;;;;5015082;28;20220;-77
2023/09/30 08:33:47;;;;;;;2.20;2.00;;;23.90;53.90;;;;;;4999504;28;20193;-78
2023/09/30 08:36:14;;;;;;;3.03;2.20;;;23.90;53.40;;;;;;5015239;28;20243;-78
2023/09/30 08:38:42;;;;;;;2.70;2.22;;;24.10;53.50;;;;;;5015971;28;20292;-79
2023/09/30 08:41:09;;;;;;;2.40;2.20;;;24.20;53.00;;;;;;5015962;28;20236;-79
2023/09/30 08:43:38;;;;;;;2.85;1.98;;;24.30;52.90;;;;;;5015507;28;20205;-78
2023/09/30 08:46:06;;;;;;;3.15;2.20;;;24.40;52.50;;;;;;5014743;28;20228;-78
2023/09/30 08:48:33;;;;;;;3.47;2.20;;;24.50;52.30;;;;;;4998524;28;20197;-78
2023/09/30 08:51:02;;;;;;;2.60;1.90;;;24.60;52.20;;;;;;5013941;28;20221;-78
2023/09/30 08:53:30;;;;;;;3.17;1.90;;;24.70;52.10;;;;;;5014920;28;20201;-78
2023/09/30 08:55:58;;;;;;;2.90;2.30;;;24.70;51.80;;;;;;5014816;28;20209;-78
2023/09/30 08:58:28;;;;;;;2.10;1.90;;;24.80;51.60;;;;;;5014967;28;20231;-77
2023/09/30 09:00:56;;;;;;;2.67;2.03;;;24.90;51.50;;;;;;5014488;28;20212;-77
2023/09/30 09:03:23;;;;;;;3.33;2.10;;;24.90;51.30;;;;;;4998413;28;20204;-77
2023/09/30 09:05:56;;;;;;;2.47;2.00;;;25.00;51.20;;;;;;5014530;28;20610;-77
2023/09/30 09:08:26;;;;;;;3.50;2.40;;;25.00;51.20;;;;;;5014517;28;20291;-77
2023/09/30 09:10:57;;;;;;;2.45;2.20;;;25.00;51.00;;;;;;5015554;28;20299;-77
2023/09/30 09:13:25;;;;;;;2.10;1.90;;;25.00;51.10;;;;;;5014454;28;20295;-77
2023/09/30 09:16:06;;;;;;;2.42;1.92;;;25.00;51.00;;;;;;5014504;28;20201;-77
2023/09/30 09:18:33;;;;;;;3.90;2.20;;;25.00;50.90;;;;;;5014425;28;20203;-78
2023/09/30 09:21:11;;;;;;;2.65;2.10;;;25.00;50.90;;;;;;4997896;28;20221;-78
2023/09/30 09:23:43;;;;;;;2.70;2.20;;;24.90;50.80;;;;;;5014073;28;20200;-78
2023/09/30 09:26:11;;;;;;;2.88;2.30;;;24.90;51.10;;;;;;5014100;28;20196;-78
2023/09/30 09:28:39;;;;;;;2.47;2.15;;;24.90;51.20;;;;;;5014190;28;20227;-78
2023/09/30 09:31:25;;;;;;;2.95;2.30;;;24.90;51.10;;;;;;5015323;28;20212;-78
2023/09/30 09:33:53;;;;;;;2.95;1.98;;;24.90;51.10;;;;;;5015228;28;20635;-78
2023/09/30 09:36:20;;;;;;;3.15;2.10;;;25.00;50.90;;;;;;5015447;28;20246;-78
2023/09/30 09:38:50;;;;;;;2.85;2.15;;;25.00;50.90;;;;;;5014020;28;20192;-78
2023/09/30 09:41:17;;;;;;;3.10;2.05;;;25.10;50.80;;;;;;5014082;28;20662;-78
2023/09/30 09:43:44;;;;;;;2.30;1.77;;;25.10;50.60;;;;;;5014108;28;20200;-78
2023/09/30 09:46:11;;;;;;;2.83;2.25;;;25.10;50.50;;;;;;5013898;28;20193;-78
2023/09/30 09:48:39;;;;;;;2.20;2.00;;;25.20;50.30;;;;;;5050081;23;20222;-76
2023/09/30 09:51:07;;;;;;;2.20;2.00;;;25.20;50.00;;;;;;5039075;28;20213;-76
2023/09/30 09:53:38;;;;;;;2.50;2.13;;;25.30;49.90;;;;;;5039639;28;20196;-76
2023/09/30 09:56:07;;;;;;;2.80;2.30;;;25.40;50.00;;;;;;5035759;28;20181;-76
2023/09/30 09:58:34;;;;;;;3.03;2.45;;;25.40;50.00;;;;;;5014058;28;20216;-76
2023/09/30 10:01:02;;;;;;;2.40;2.00;;;25.50;49.90;;;;;;5014133;28;20359;-75
2023/09/30 10:03:29;;;;;;;4.43;2.15;;;25.50;50.20;;;;;;5014594;28;20211;-74
2023/09/30 10:05:56;;;;;;;3.38;2.15;;;25.50;49.60;;;;;;5013860;28;20196;-75
2023/09/30 10:08:23;;;;;;;2.88;2.17;;;25.50;49.50;;;;;;4997490;28;20211;-75
2023/09/30 10:10:50;;;;;;;2.67;2.20;;;25.50;49.50;;;;;;5013364;28;20224;-74
2023/09/30 10:13:54;;;;;;;3.60;2.20;;;25.40;49.50;;;;;;5013287;28;20207;-75
2023/09/30 10:16:50;;;;;;;3.08;2.42;;;25.50;49.60;;;;;;5015963;28;20202;-75
2023/09/30 10:19:18;;;;;;;3.60;2.42;;;25.50;49.50;;;;;;5003122;28;20266;-75
2023/09/30 10:22:23;;;;;;;2.67;1.88;;;25.50;49.50;;;;;;5019518;28;20207;-75
2023/09/30 10:24:50;;;;;;;3.05;2.33;;;25.50;49.70;;;;;;5013278;28;20238;-76
2023/09/30 10:27:32;;;;;;;3.20;2.30;;;25.50;49.80;;;;;;5013640;28;20231;-76
2023/09/30 10:30:10;;;;;;;2.63;2.40;;;25.40;49.80;;;;;;5012999;28;20219;-76
2023/09/30 10:33:12;;;;;;;2.63;2.42;;;25.40;50.00;;;;;;5013602;28;20280;-76
2023/09/30 10:35:49;;;;;;;2.28;2.08;;;25.40;49.90;;;;;;5013044;28;20660;-76
2023/09/30 10:38:45;;;;;;;3.00;2.50;;;25.40;50.00;;;;;;5016267;28;20185;-77
2023/09/30 10:41:12;;;;;;;2.38;2.15;;;25.40;49.90;;;;;;4997943;28;20196;-77
2023/09/30 10:43:40;;;;;;;2.47;2.10;;;25.40;49.80;;;;;;5013293;28;20239;-76
2023/09/30 10:46:36;;;;;;;2.88;2.42;;;25.40;50.00;;;;;;5014932;28;20239;-77
2023/09/30 10:49:18;;;;;;;2.58;2.17;;;25.40;50.00;;;;;;5012890;28;20208;-76
2023/09/30 10:51:46;;;;;;;2.65;2.05;;;25.40;50.00;;;;;;5014081;28;20242;-76
2023/09/30 10:54:14;;;;;;;2.25;2.00;;;25.40;50.00;;;;;;5013220;28;20196;-76
2023/09/30 10:56:41;;;;;;;3.03;2.22;;;25.40;50.00;;;;;;5012872;28;20204;-76
2023/09/30 10:59:09;;;;;;;3.00;2.20;;;25.40;50.00;;;;;;5013930;28;20299;-76
2023/09/30 11:01:37;;;;;;;2.75;2.20;;;25.40;50.00;;;;;;5013242;28;20196;-76
2023/09/30 11:04:05;;;;;;;2.92;2.30;;;25.30;50.00;;;;;;5012926;28;20647;-77
2023/09/30 11:06:33;;;;;;;2.30;2.10;;;25.30;49.90;;;;;;5013922;28;20262;-77
2023/09/30 11:09:00;;;;;;;3.33;2.30;;;25.40;50.00;;;;;;5012871;28;20204;-77
2023/09/30 11:11:37;;;;;;;2.45;2.13;;;25.40;50.10;;;;;;5012712;28;20701;-78
2023/09/30 11:14:18;;;;;;;2.85;2.30;;;25.40;50.00;;;;;;5015481;28;20554;-77
2023/09/30 11:16:46;;;;;;;2.80;2.17;;;25.40;50.00;;;;;;5019116;28;20199;-77
2023/09/30 11:19:14;;;;;;;2.53;2.05;;;25.40;50.00;;;;;;5017062;28;20216;-77
2023/09/30 11:21:43;;;;;;;2.40;2.20;;;25.40;50.00;;;;;;5017095;28;20215;-77
2023/09/30 11:24:10;;;;;;;3.60;2.75;;;25.40;50.00;;;;;;5016998;28;20262;-77
2023/09/30 11:26:37;;;;;;;2.75;2.10;;;25.40;50.00;;;;;;5016503;28;20199;-78
2023/09/30 11:29:08;;;;;;;2.67;2.30;;;25.50;50.00;;;;;;5016344;28;20216;-77
2023/09/30 11:31:37;;;;;;;2.45;1.88;;;25.50;50.70;;;;;;5016346;28;20224;-77
2023/09/30 11:34:07;;;;;;;2.60;2.40;;;25.50;50.00;;;;;;5016433;28;20195;-77
2023/09/30 11:36:35;;;;;;;2.97;2.30;;;25.40;50.00;;;;;;5016439;28;20294;-77
2023/09/30 11:39:03;;;;;;;2.60;2.38;;;25.40;50.60;;;;;;5016861;28;20601;-76
2023/09/30 11:41:34;;;;;;;2.97;2.15;;;25.40;50.00;;;;;;5016747;28;20200;-76
2023/09/30 11:44:04;;;;;;;3.10;2.17;;;25.40;50.00;;;;;;5017038;28;20671;-76
2023/09/30 11:46:33;;;;;;;2.60;2.10;;;25.40;50.00;;;;;;5016450;28;20196;-76
2023/09/30 11:49:01;;;;;;;3.35;2.40;;;25.40;50.00;;;;;;5015957;28;20299;-76
2023/09/30 11:51:31;;;;;;;4.63;2.88;;;25.30;50.10;;;;;;5016256;28;20220;-76
2023/09/30 11:53:58;;;;;;;4.32;2.33;;;25.20;50.30;;;;;;5016982;28;20270;-76
2023/09/30 11:56:29;;;;;;;4.80;3.13;;;25.30;50.40;;;;;;5016017;28;20201;-76
2023/09/30 11:58:58;;;;;;;7.30;3.35;;;25.20;49.40;;;;;;5015737;28;20196;-76
2023/09/30 12:01:26;;;;;;;7.75;3.40;;;25.20;49.60;;;;;;5016853;28;20227;-77
2023/09/30 12:03:55;;;;;;;5.38;3.03;;;25.10;49.60;;;;;;5015623;28;20251;-77
2023/09/30 12:06:23;;;;;;;6.82;2.90;;;25.10;50.00;;;;;;5020001;28;20315;-76
2023/09/30 12:08:52;;;;;;;6.25;4.30;;;25.10;50.20;;;;;;5015979;28;20610;-77
2023/09/30 12:11:19;;;;;;;7.80;5.15;;;25.10;48.00;;;;;;5015685;28;20571;-76
2023/09/30 12:13:48;;;;;;;7.03;4.68;;;24.90;47.30;;;;;;5016778;28;20189;-77
2023/09/30 12:16:15;;;;;;;6.18;3.95;;;24.80;47.20;;;;;;5015752;28;20196;-75
2023/09/30 12:18:42;;;;;;;8.25;4.68;;;24.70;49.40;;;;;;5015398;28;20578;-76
2023/09/30 12:21:10;;;;;;;7.50;4.55;;;24.60;48.10;;;;;;5015237;28;20217;-76
2023/09/30 12:23:37;;;;;;;8.60;4.95;;;24.60;47.40;;;;;;5015454;28;20203;-77
2023/09/30 12:26:05;;;;;;;9.20;5.25;;;24.50;47.40;;;;;;5014008;28;20204;-77
2023/09/30 12:28:33;;;;;;;8.88;5.35;;;24.50;47.30;;;;;;5015144;28;20211;-77
2023/09/30 12:31:02;;;;;;;7.43;5.20;;;24.50;46.80;;;;;;4998928;28;20232;-77
2023/09/30 12:33:30;;;;;;;10.30;5.15;;;24.40;47.20;;;;;;5015337;28;20247;-77
2023/09/30 12:35:57;;;;;;;6.97;4.75;;;24.50;47.80;;;;;;5015051;28;20567;-77
2023/09/30 12:38:25;;;;;;;7.85;5.07;;;24.50;48.20;;;;;;5016112;28;20299;-77
2023/09/30 12:40:53;;;;;;;7.97;4.57;;;24.50;47.30;;;;;;5015004;28;20226;-77
2023/09/30 12:43:21;;;;;;;7.07;4.85;;;24.50;47.50;;;;;;5015013;28;20204;-77
2023/09/30 12:45:48;;;;;;;7.85;4.70;;;24.50;47.40;;;;;;5014849;28;20200;-77
2023/09/30 12:48:17;;;;;;;9.32;5.03;;;24.50;46.80;;;;;;5014851;28;20578;-77
2023/09/30 12:50:44;;;;;;;8.27;4.97;;;24.40;46.70;;;;;;5014650;28;20248;-77
2023/09/30 12:53:11;;;;;;;7.20;4.88;;;24.20;46.50;;;;;;5014738;28;20300;-77